createdAt,value
2023-06-29T00:00:12.786Z,8.85
2023-06-29T00:02:43.207Z,6.10
2023-06-29T00:05:13.316Z,6.95
2023-06-29T00:07:42.342Z,7.07
2023-06-29T00:10:12.486Z,6.53
2023-06-29T00:12:43.485Z,6.95
2023-06-29T00:15:13.619Z,7.20
2023-06-29T00:17:42.218Z,7.28
2023-06-29T00:20:12.604Z,6.43
2023-06-29T00:22:42.183Z,7.18
2023-06-29T00:25:12.208Z,7.30
2023-06-29T00:27:40.692Z,7.13
2023-06-29T00:30:10.621Z,7.63
2023-06-29T00:32:40.542Z,8.25
2023-06-29T00:35:10.157Z,7.25
2023-06-29T00:37:38.713Z,6.85
2023-06-29T00:40:09.432Z,6.73
2023-06-29T00:42:38.273Z,5.90
2023-06-29T00:45:08.498Z,8.00
2023-06-29T00:47:37.607Z,7.95
2023-06-29T00:50:09.858Z,8.40
2023-06-29T00:52:38.971Z,7.20
2023-06-29T00:55:08.604Z,9.60
2023-06-29T00:57:37.243Z,7.32
2023-06-29T01:00:11.758Z,6.72
2023-06-29T01:02:42.949Z,8.77
2023-06-29T01:05:15.419Z,7.73
2023-06-29T01:07:52.404Z,6.72
2023-06-29T01:10:26.026Z,6.47
2023-06-29T01:12:56.148Z,6.80
2023-06-29T01:15:25.303Z,8.48
2023-06-29T01:17:57.986Z,6.43
2023-06-29T01:20:28.630Z,7.30
2023-06-29T01:23:01.678Z,7.35
2023-06-29T01:25:34.175Z,7.10
2023-06-29T01:28:08.369Z,9.15
2023-06-29T01:30:40.962Z,7.33
2023-06-29T01:33:10.767Z,9.10
2023-06-29T01:35:39.585Z,8.73
2023-06-29T01:38:13.451Z,7.78
2023-06-29T01:40:46.204Z,7.55
2023-06-29T01:43:15.990Z,6.50
2023-06-29T01:45:45.469Z,7.53
2023-06-29T01:48:14.792Z,6.22
2023-06-29T01:50:43.736Z,6.72
2023-06-29T01:53:12.883Z,7.25
2023-06-29T01:55:43.661Z,7.80
2023-06-29T01:58:12.306Z,9.00
2023-06-29T02:00:40.830Z,8.23
2023-06-29T02:03:09.488Z,7.18
2023-06-29T02:05:38.029Z,7.18
2023-06-29T02:08:07.021Z,7.93
2023-06-29T02:10:35.576Z,6.88
2023-06-29T02:13:05.664Z,7.07
2023-06-29T02:15:34.175Z,7.63
2023-06-29T02:18:02.866Z,7.78
2023-06-29T02:20:31.384Z,7.27
2023-06-29T02:22:59.872Z,6.95
2023-06-29T02:25:28.354Z,6.75
2023-06-29T02:27:56.878Z,8.27
2023-06-29T02:30:26.787Z,7.63
2023-06-29T02:32:55.284Z,7.40
2023-06-29T02:35:24.058Z,8.45
2023-06-29T02:37:52.552Z,7.47
2023-06-29T02:40:21.477Z,7.60
2023-06-29T02:42:49.960Z,9.10
2023-06-29T02:45:18.568Z,7.10
2023-06-29T02:47:48.696Z,8.65
2023-06-29T02:50:17.388Z,7.82
2023-06-29T02:52:46.110Z,7.72
2023-06-29T02:55:14.885Z,8.30
2023-06-29T02:57:43.735Z,7.87
2023-06-29T03:00:13.793Z,7.05
2023-06-29T03:02:42.515Z,8.73
2023-06-29T03:05:12.764Z,7.45
2023-06-29T03:07:41.289Z,10.98
2023-06-29T03:10:10.796Z,7.67
2023-06-29T03:12:39.322Z,7.95
2023-06-29T03:15:09.139Z,7.13
2023-06-29T03:17:37.796Z,10.73
2023-06-29T03:20:07.839Z,8.98
2023-06-29T03:22:37.705Z,6.73
2023-06-29T03:25:08.874Z,7.75
2023-06-29T03:27:38.234Z,9.50
2023-06-29T03:30:09.936Z,7.95
2023-06-29T03:32:38.507Z,9.07
2023-06-29T03:35:08.764Z,6.77
2023-06-29T03:37:38.700Z,7.85
2023-06-29T03:40:09.414Z,7.43
2023-06-29T03:42:38.122Z,8.13
2023-06-29T03:45:08.427Z,7.55
2023-06-29T03:47:37.004Z,7.10
2023-06-29T03:50:06.384Z,8.23
2023-06-29T03:52:35.120Z,8.80
2023-06-29T03:55:05.695Z,7.40
2023-06-29T03:57:34.177Z,7.82
2023-06-29T04:00:04.173Z,8.60
2023-06-29T04:02:32.704Z,7.88
2023-06-29T04:05:01.259Z,8.70
2023-06-29T04:07:29.779Z,7.82
2023-06-29T04:09:58.332Z,7.85
2023-06-29T04:12:28.181Z,8.27
2023-06-29T04:14:56.713Z,7.40
2023-06-29T04:17:25.461Z,9.77
2023-06-29T04:19:54.270Z,8.35
2023-06-29T04:22:22.773Z,8.23
2023-06-29T04:24:51.501Z,9.33
2023-06-29T04:27:20.099Z,7.65
2023-06-29T04:29:49.990Z,8.05
2023-06-29T04:32:18.581Z,8.13
2023-06-29T04:34:48.966Z,9.95
2023-06-29T04:37:17.685Z,9.33
2023-06-29T04:39:46.446Z,8.90
2023-06-29T04:42:18.144Z,7.40
2023-06-29T04:44:46.647Z,6.93
2023-06-29T04:47:16.796Z,8.25
2023-06-29T04:49:52.537Z,8.77
2023-06-29T04:52:21.406Z,7.13
2023-06-29T04:54:49.867Z,9.27
2023-06-29T04:57:18.862Z,7.60
2023-06-29T04:59:47.334Z,9.40
2023-06-29T05:02:17.242Z,8.83
2023-06-29T05:04:45.749Z,8.77
2023-06-29T05:07:14.356Z,9.13
2023-06-29T05:09:42.855Z,10.25
2023-06-29T05:12:12.656Z,7.95
2023-06-29T05:14:41.155Z,9.53
2023-06-29T05:17:09.959Z,7.75
2023-06-29T05:19:40.908Z,7.30
2023-06-29T05:22:09.554Z,7.18
2023-06-29T05:24:38.725Z,9.02
2023-06-29T05:27:08.550Z,8.20
2023-06-29T05:29:37.853Z,8.68
2023-06-29T05:32:07.685Z,8.23
2023-06-29T05:34:37.029Z,6.93
2023-06-29T05:37:07.264Z,9.60
2023-06-29T05:39:35.764Z,7.67
2023-06-29T05:42:04.567Z,9.95
2023-06-29T05:44:33.079Z,8.35
2023-06-29T05:47:02.816Z,10.15
2023-06-29T05:49:31.311Z,8.98
2023-06-29T05:51:59.797Z,9.13
2023-06-29T05:54:29.653Z,9.50
2023-06-29T05:56:58.143Z,9.15
2023-06-29T05:59:26.633Z,9.77
2023-06-29T06:01:55.624Z,9.30
2023-06-29T06:04:24.235Z,9.70
2023-06-29T06:06:53.132Z,9.32
2023-06-29T06:09:21.662Z,9.27
2023-06-29T06:11:51.551Z,7.90
2023-06-29T06:14:20.069Z,10.10
2023-06-29T06:16:48.617Z,9.57
2023-06-29T06:19:17.111Z,10.15
2023-06-29T06:21:45.638Z,9.50
2023-06-29T06:24:14.147Z,7.40
2023-06-29T06:26:42.629Z,8.55
2023-06-29T06:29:12.514Z,7.73
2023-06-29T06:31:41.329Z,8.68
2023-06-29T06:34:09.894Z,8.95
2023-06-29T06:36:38.493Z,7.57
2023-06-29T06:39:07.351Z,7.53
2023-06-29T06:41:35.829Z,8.47
2023-06-29T06:44:04.531Z,9.18
2023-06-29T06:46:34.464Z,9.57
2023-06-29T06:49:03.365Z,9.70
2023-06-29T06:51:31.863Z,10.43
2023-06-29T06:54:00.375Z,6.70
2023-06-29T06:58:57.499Z,7.70
2023-06-29T07:01:26.067Z,7.43
2023-06-29T07:03:56.011Z,9.38
2023-06-29T07:06:24.805Z,6.47
2023-06-29T07:08:53.319Z,6.47
2023-06-29T07:11:21.801Z,7.05
2023-06-29T07:13:50.282Z,7.53
2023-06-29T07:16:18.887Z,6.40
2023-06-29T07:21:37.062Z,6.60
2023-06-29T07:24:08.177Z,6.40
2023-06-29T07:26:37.580Z,7.60
2023-06-29T07:29:07.511Z,7.53
2023-06-29T07:31:36.487Z,6.30
2023-06-29T07:34:06.465Z,6.72
2023-06-29T07:36:35.615Z,6.18
2023-06-29T07:39:04.346Z,5.78
2023-06-29T07:41:33.813Z,6.97
2023-06-29T07:44:02.588Z,6.80
2023-06-29T07:46:33.213Z,6.47
2023-06-29T07:49:01.904Z,5.57
2023-06-29T07:51:34.121Z,7.95
2023-06-29T07:54:03.547Z,6.32
2023-06-29T07:59:03.772Z,8.65
2023-06-29T08:01:32.429Z,8.10
2023-06-29T08:04:03.828Z,7.50
2023-06-29T08:09:06.453Z,5.77
2023-06-29T08:11:35.023Z,6.63
2023-06-29T08:14:03.761Z,6.18
2023-06-29T08:16:32.348Z,5.90
2023-06-29T08:19:01.681Z,6.60
2023-06-29T08:21:30.366Z,6.17
2023-06-29T08:24:00.866Z,5.68
2023-06-29T08:26:30.001Z,9.07
2023-06-29T08:28:58.512Z,7.45
2023-06-29T08:31:27.369Z,7.43
2023-06-29T08:33:56.045Z,6.73
2023-06-29T08:36:24.621Z,7.40
2023-06-29T08:38:53.102Z,8.43
2023-06-29T08:41:23.124Z,8.52
2023-06-29T08:43:51.693Z,6.75
2023-06-29T08:46:20.455Z,7.77
2023-06-29T08:48:49.731Z,8.68
2023-06-29T08:51:20.797Z,7.88
2023-06-29T08:53:52.169Z,7.45
2023-06-29T08:56:24.770Z,10.00
2023-06-29T08:58:54.905Z,8.67
2023-06-29T09:01:23.767Z,7.30
2023-06-29T09:03:54.203Z,8.18
2023-06-29T09:06:26.278Z,7.82
2023-06-29T09:08:56.685Z,6.95
2023-06-29T09:11:26.607Z,8.70
2023-06-29T09:13:55.757Z,8.60
2023-06-29T09:16:31.206Z,12.30
2023-06-29T09:19:55.332Z,8.45
2023-06-29T09:22:31.648Z,11.43
2023-06-29T09:25:10.284Z,9.70
2023-06-29T09:27:46.020Z,9.75
2023-06-29T09:30:20.714Z,8.55
2023-06-29T09:32:49.549Z,9.15
2023-06-29T09:35:18.091Z,8.02
2023-06-29T09:37:47.450Z,9.77
2023-06-29T09:40:16.008Z,8.00
2023-06-29T09:42:46.092Z,9.38
2023-06-29T09:45:16.119Z,8.88
2023-06-29T09:50:25.908Z,8.23
2023-06-29T09:53:00.146Z,10.10
2023-06-29T09:55:34.084Z,8.18
2023-06-29T09:58:05.027Z,8.40
2023-06-29T10:00:34.485Z,8.93
2023-06-29T10:03:03.423Z,9.70
2023-06-29T10:05:33.145Z,8.55
2023-06-29T10:08:06.170Z,8.82
2023-06-29T10:10:39.476Z,8.27
2023-06-29T10:13:09.987Z,8.75
2023-06-29T10:15:40.289Z,9.53
2023-06-29T10:18:12.967Z,11.32
2023-06-29T10:20:45.029Z,9.75
2023-06-29T10:23:17.310Z,9.43
2023-06-29T10:26:06.876Z,9.95
2023-06-29T10:28:55.628Z,8.97
2023-06-29T10:31:34.109Z,8.43
2023-06-29T10:34:03.584Z,8.13
2023-06-29T10:36:47.616Z,8.65
2023-06-29T10:39:42.134Z,9.27
2023-06-29T10:42:14.999Z,10.73
2023-06-29T10:44:49.760Z,11.45
2023-06-29T10:47:28.851Z,9.00
2023-06-29T10:50:21.490Z,8.32
2023-06-29T10:52:50.824Z,8.05
2023-06-29T10:55:21.185Z,7.63
2023-06-29T10:57:54.210Z,8.38
2023-06-29T11:00:26.794Z,8.38
2023-06-29T11:02:56.366Z,8.40
2023-06-29T11:05:25.699Z,7.07
2023-06-29T11:07:54.980Z,9.10
2023-06-29T11:10:24.714Z,9.07
2023-06-29T11:12:55.686Z,9.02
2023-06-29T11:15:28.273Z,8.38
2023-06-29T11:17:56.796Z,8.52
2023-06-29T11:20:31.291Z,6.90
2023-06-29T11:23:00.646Z,9.02
2023-06-29T11:25:30.386Z,7.75
2023-06-29T11:28:00.191Z,9.70
2023-06-29T11:30:30.445Z,9.85
2023-06-29T11:32:59.057Z,11.00
2023-06-29T11:35:27.576Z,8.80
2023-06-29T11:38:02.197Z,8.25
2023-06-29T11:40:31.565Z,9.00
2023-06-29T11:43:00.158Z,9.23
2023-06-29T11:45:30.169Z,11.07
2023-06-29T11:47:59.148Z,10.18
2023-06-29T11:50:27.842Z,7.72
2023-06-29T11:52:58.975Z,7.90
2023-06-29T11:55:28.984Z,9.73
2023-06-29T11:57:57.620Z,9.53
2023-06-29T12:00:34.320Z,7.70
2023-06-29T12:03:10.570Z,6.70
2023-06-29T12:05:44.266Z,8.23
2023-06-29T12:08:13.088Z,7.18
2023-06-29T12:10:41.792Z,6.83
2023-06-29T12:13:12.774Z,9.27
2023-06-29T12:18:18.352Z,8.32
2023-06-29T12:20:50.415Z,10.27
2023-06-29T12:23:19.925Z,8.30
2023-06-29T12:25:51.269Z,8.02
2023-06-29T12:28:20.190Z,9.52
2023-06-29T12:30:50.110Z,8.27
2023-06-29T12:33:18.903Z,9.43
2023-06-29T12:35:47.681Z,10.90
2023-06-29T12:38:16.687Z,9.40
2023-06-29T12:40:45.158Z,12.20
2023-06-29T12:43:13.839Z,15.93
2023-06-29T12:45:42.624Z,8.18
2023-06-29T12:48:12.931Z,11.00
2023-06-29T12:50:41.457Z,9.05
2023-06-29T12:53:10.148Z,9.32
2023-06-29T12:55:38.684Z,9.65
2023-06-29T12:58:07.144Z,10.63
2023-06-29T13:00:36.874Z,9.17
2023-06-29T13:03:08.926Z,7.32
2023-06-29T13:05:39.031Z,7.63
2023-06-29T13:08:07.536Z,9.35
2023-06-29T13:10:36.173Z,8.02
2023-06-29T13:13:04.977Z,7.87
2023-06-29T13:15:33.822Z,9.40
2023-06-29T13:18:02.381Z,9.45
2023-06-29T13:20:31.080Z,7.88
2023-06-29T13:23:01.676Z,8.88
2023-06-29T13:25:30.266Z,9.80
2023-06-29T13:27:58.784Z,9.63
2023-06-29T13:30:27.372Z,9.13
2023-06-29T13:32:55.940Z,10.45
2023-06-29T13:35:24.592Z,10.73
2023-06-29T13:37:53.787Z,8.80
2023-06-29T13:40:23.837Z,11.13
2023-06-29T13:42:52.314Z,8.98
2023-06-29T13:45:21.238Z,7.65
2023-06-29T13:47:49.819Z,8.85
2023-06-29T13:50:22.635Z,8.73
2023-06-29T13:52:54.003Z,10.70
2023-06-29T13:55:24.501Z,9.80
2023-06-29T13:57:53.407Z,7.82
2023-06-29T14:00:23.934Z,9.43
2023-06-29T14:02:53.741Z,8.67
2023-06-29T14:05:22.662Z,8.57
2023-06-29T14:07:51.330Z,8.40
2023-06-29T14:10:19.932Z,8.77
2023-06-29T14:12:50.102Z,9.63
2023-06-29T14:15:18.694Z,11.80
2023-06-29T14:17:47.397Z,8.88
2023-06-29T14:20:15.965Z,10.63
2023-06-29T14:22:44.787Z,9.50
2023-06-29T14:25:13.277Z,8.43
2023-06-29T14:27:41.990Z,9.03
2023-06-29T14:30:14.066Z,9.80
2023-06-29T14:32:42.861Z,12.20
2023-06-29T14:35:11.585Z,12.35
2023-06-29T14:37:40.875Z,10.95
2023-06-29T14:40:11.989Z,11.87
2023-06-29T14:42:41.467Z,8.48
2023-06-29T14:45:13.237Z,10.27
2023-06-29T14:47:42.151Z,9.40
2023-06-29T14:50:11.757Z,9.70
2023-06-29T14:52:40.618Z,11.23
2023-06-29T14:55:09.759Z,9.85
2023-06-29T14:57:38.269Z,11.25
2023-06-29T15:00:09.793Z,12.40
2023-06-29T15:02:39.721Z,10.60
2023-06-29T15:05:09.313Z,9.80
2023-06-29T15:07:37.870Z,10.45
2023-06-29T15:10:07.814Z,10.70
2023-06-29T15:12:36.320Z,11.27
2023-06-29T15:15:05.565Z,11.90
2023-06-29T15:17:34.040Z,10.57
2023-06-29T15:20:04.520Z,10.48
2023-06-29T15:22:32.987Z,10.00
2023-06-29T15:25:01.477Z,12.10
2023-06-29T15:27:30.581Z,11.20
2023-06-29T15:29:59.128Z,11.93
2023-06-29T15:32:28.619Z,9.57
2023-06-29T15:34:57.226Z,12.55
2023-06-29T15:37:27.115Z,12.00
2023-06-29T15:39:55.623Z,10.10
2023-06-29T15:42:24.134Z,12.50
2023-06-29T15:44:52.609Z,14.15
2023-06-29T15:47:21.098Z,12.45
2023-06-29T15:49:49.593Z,16.90
2023-06-29T15:52:18.144Z,14.55
2023-06-29T15:54:48.110Z,14.27
2023-06-29T15:57:16.623Z,16.02
2023-06-29T15:59:45.162Z,16.85
2023-06-29T16:02:16.097Z,13.23
2023-06-29T16:04:44.715Z,17.20
2023-06-29T16:07:13.601Z,19.13
2023-06-29T16:09:42.145Z,19.23
2023-06-29T16:12:12.609Z,16.33
2023-06-29T16:14:41.105Z,14.85
2023-06-29T16:17:09.624Z,15.30
2023-06-29T16:19:38.186Z,15.00
2023-06-29T16:22:07.929Z,16.50
2023-06-29T16:24:36.638Z,16.15
2023-06-29T16:27:06.513Z,17.05
2023-06-29T16:29:36.390Z,15.30
2023-06-29T16:32:05.865Z,17.07
2023-06-29T16:34:34.480Z,20.70
2023-06-29T16:37:03.074Z,20.55
2023-06-29T16:39:31.660Z,19.05
2023-06-29T16:42:00.703Z,20.38
2023-06-29T16:44:29.282Z,16.70
2023-06-29T16:46:59.224Z,21.23
2023-06-29T16:49:28.366Z,20.33
2023-06-29T16:51:56.868Z,17.52
2023-06-29T16:54:25.452Z,17.70
2023-06-29T16:56:54.024Z,18.60
2023-06-29T16:59:22.747Z,21.48
2023-06-29T17:01:51.447Z,19.70
2023-06-29T17:04:21.997Z,17.38
2023-06-29T17:06:50.546Z,20.10
2023-06-29T17:09:19.216Z,19.10
2023-06-29T17:11:47.743Z,15.63
2023-06-29T17:14:16.387Z,16.13
2023-06-29T17:16:44.972Z,14.57
2023-06-29T17:19:13.572Z,15.45
2023-06-29T17:21:43.438Z,14.13
2023-06-29T17:24:11.930Z,15.35
2023-06-29T17:26:40.439Z,14.88
2023-06-29T17:29:09.846Z,14.05
2023-06-29T17:31:38.867Z,15.05
2023-06-29T17:34:07.391Z,15.63
2023-06-29T17:36:36.198Z,13.13
2023-06-29T17:39:06.129Z,13.57
2023-06-29T17:41:34.796Z,16.25
2023-06-29T17:44:03.340Z,13.07
2023-06-29T17:46:32.785Z,13.07
2023-06-29T17:49:01.465Z,11.75
2023-06-29T17:51:30.309Z,12.05
2023-06-29T17:53:59.125Z,13.40
2023-06-29T17:56:29.241Z,13.07
2023-06-29T17:58:57.774Z,13.50
2023-06-29T18:01:26.344Z,12.98
2023-06-29T18:03:54.987Z,15.02
2023-06-29T18:06:23.730Z,14.20
2023-06-29T18:08:55.366Z,13.98
2023-06-29T18:11:23.923Z,14.77
2023-06-29T18:13:53.780Z,13.63
2023-06-29T18:16:22.393Z,15.65
2023-06-29T18:18:50.896Z,13.85
2023-06-29T18:21:19.432Z,12.27
2023-06-29T18:23:48.408Z,13.40
2023-06-29T18:26:17.937Z,12.73
2023-06-29T18:28:46.929Z,13.07
2023-06-29T18:31:17.214Z,13.77
2023-06-29T18:33:45.988Z,13.75
2023-06-29T18:36:14.636Z,11.50
2023-06-29T18:38:43.211Z,12.10
2023-06-29T18:41:31.211Z,15.13
2023-06-29T18:44:01.121Z,12.30
2023-06-29T18:46:33.079Z,13.18
2023-06-29T18:49:01.961Z,12.10
2023-06-29T18:51:30.467Z,13.68
2023-06-29T18:53:59.020Z,13.38
2023-06-29T18:56:27.918Z,13.65
2023-06-29T18:58:56.553Z,12.95
2023-06-29T19:01:25.100Z,13.97
2023-06-29T19:03:54.961Z,14.32
2023-06-29T19:06:23.457Z,12.25
2023-06-29T19:08:52.209Z,13.57
2023-06-29T19:11:21.213Z,12.93
2023-06-29T19:13:49.801Z,12.23
2023-06-29T19:16:19.180Z,11.38
2023-06-29T19:18:47.667Z,14.13
2023-06-29T19:21:20.755Z,12.05
2023-06-29T19:23:49.858Z,12.90
2023-06-29T19:26:18.870Z,12.10
2023-06-29T19:28:47.425Z,15.27
2023-06-29T19:31:16.583Z,12.82
2023-06-29T19:33:45.472Z,11.57
2023-06-29T19:36:13.991Z,13.80
2023-06-29T19:38:44.127Z,12.37
2023-06-29T19:41:12.757Z,15.40
2023-06-29T19:43:41.217Z,12.52
2023-06-29T19:46:09.891Z,16.45
2023-06-29T19:48:38.636Z,13.50
2023-06-29T19:51:07.612Z,11.63
2023-06-29T19:53:36.392Z,12.70
2023-06-29T19:56:07.329Z,12.20
2023-06-29T19:58:35.857Z,13.95
2023-06-29T20:01:04.462Z,12.23
2023-06-29T20:03:33.663Z,12.10
2023-06-29T20:06:02.422Z,14.32
2023-06-29T20:08:30.934Z,11.55
2023-06-29T20:10:59.470Z,11.65
2023-06-29T20:13:29.604Z,13.48
2023-06-29T20:15:58.104Z,11.60
2023-06-29T20:18:26.704Z,13.73
2023-06-29T20:20:55.440Z,12.90
2023-06-29T20:23:23.937Z,13.05
2023-06-29T20:25:52.399Z,11.43
2023-06-29T20:28:20.908Z,12.03
2023-06-29T20:30:51.031Z,12.45
2023-06-29T20:33:19.506Z,12.80
2023-06-29T20:35:48.397Z,13.07
2023-06-29T20:38:16.988Z,12.88
2023-06-29T20:40:45.596Z,11.97
2023-06-29T20:43:14.471Z,11.27
2023-06-29T20:45:44.760Z,13.18
2023-06-29T20:48:15.162Z,14.32
2023-06-29T20:50:43.904Z,12.70
2023-06-29T20:53:12.923Z,14.17
2023-06-29T20:55:41.414Z,12.43
2023-06-29T20:58:10.678Z,13.60
2023-06-29T21:00:39.896Z,14.50
2023-06-29T21:03:08.636Z,11.40
2023-06-29T21:05:38.514Z,13.73
2023-06-29T21:08:07.028Z,13.05
2023-06-29T21:10:35.604Z,13.27
2023-06-29T21:13:04.601Z,12.32
2023-06-29T21:15:33.446Z,12.95
2023-06-29T21:18:04.535Z,12.93
2023-06-29T21:20:35.987Z,13.13
2023-06-29T21:23:06.720Z,13.63
2023-06-29T21:25:35.994Z,13.70
2023-06-29T21:28:05.939Z,13.27
2023-06-29T21:30:37.796Z,14.07
2023-06-29T21:33:08.031Z,13.35
2023-06-29T21:35:37.463Z,12.15
2023-06-29T21:38:08.939Z,14.27
2023-06-29T21:40:37.448Z,13.75
2023-06-29T21:43:05.932Z,13.90
2023-06-29T21:45:34.474Z,15.65
2023-06-29T21:48:03.041Z,12.20
2023-06-29T21:50:33.867Z,12.45
2023-06-29T21:53:03.274Z,14.20
2023-06-29T21:55:33.415Z,13.23
2023-06-29T21:58:01.947Z,13.95
2023-06-29T22:00:30.948Z,13.40
2023-06-29T22:02:59.509Z,13.70
2023-06-29T22:05:28.888Z,12.27
2023-06-29T22:07:57.448Z,14.70
2023-06-29T22:10:26.640Z,14.43
2023-06-29T22:12:56.731Z,12.30
2023-06-29T22:15:25.259Z,12.93
2023-06-29T22:17:54.821Z,12.80
2023-06-29T22:20:24.185Z,13.27
2023-06-29T22:22:53.390Z,11.30
2023-06-29T22:25:22.184Z,12.90
2023-06-29T22:27:51.130Z,15.13
2023-06-29T22:30:21.233Z,13.05
2023-06-29T22:32:52.905Z,14.77
2023-06-29T22:35:22.063Z,13.05
2023-06-29T22:37:50.564Z,12.77
2023-06-29T22:40:19.183Z,12.65
2023-06-29T22:42:48.204Z,13.85
2023-06-29T22:45:16.812Z,16.20
2023-06-29T22:47:46.803Z,13.57
2023-06-29T22:50:15.454Z,17.27
2023-06-29T22:52:43.968Z,12.52
2023-06-29T22:55:12.476Z,14.20
2023-06-29T22:57:41.000Z,14.00
2023-06-29T23:00:11.928Z,11.75
2023-06-29T23:02:40.692Z,16.08
2023-06-29T23:05:11.969Z,14.75
2023-06-29T23:07:44.557Z,13.05
2023-06-29T23:10:14.503Z,14.60
2023-06-29T23:12:46.661Z,11.93
2023-06-29T23:15:15.506Z,13.43
2023-06-29T23:17:44.318Z,15.30
2023-06-29T23:20:14.816Z,14.30
2023-06-29T23:22:45.740Z,13.30
2023-06-29T23:25:14.772Z,15.93
2023-06-29T23:27:45.954Z,14.75
2023-06-29T23:30:16.838Z,14.57
2023-06-29T23:32:51.147Z,15.63
2023-06-29T23:35:21.989Z,14.60
2023-06-29T23:37:50.493Z,15.57
2023-06-29T23:40:19.512Z,13.30
2023-06-29T23:42:48.030Z,13.55
2023-06-29T23:45:17.749Z,14.50
2023-06-29T23:47:46.318Z,14.97
2023-06-29T23:50:15.008Z,14.70
2023-06-29T23:52:44.959Z,15.77
2023-06-29T23:55:13.886Z,13.45
2023-06-29T23:57:42.730Z,15.63
